sensor_id;sensor_type;location;lat;lon;timestamp;temperature;humidity
30300;DHT22;17110;52.602;12.998;2022-07-29T00:00:45;14.40;99.90
30300;DHT22;17110;52.602;12.998;2022-07-29T00:03:12;14.30;99.90
30300;DHT22;17110;52.602;12.998;2022-07-29T00:05:39;14.40;99.90
30300;DHT22;17110;52.602;12.998;2022-07-29T00:08:06;14.40;99.90
30300;DHT22;17110;52.602;12.998;2022-07-29T00:10:32;14.30;99.90
30300;DHT22;17110;52.602;12.998;2022-07-29T00:12:58;14.20;99.90
30300;DHT22;17110;52.602;12.998;2022-07-29T00:15:23;14.20;99.90
30300;DHT22;17110;52.602;12.998;2022-07-29T00:17:49;14.20;99.90
30300;DHT22;17110;52.602;12.998;2022-07-29T00:20:15;14.20;99.90
30300;DHT22;17110;52.602;12.998;2022-07-29T00:22:41;14.20;99.90
30300;DHT22;17110;52.602;12.998;2022-07-29T00:25:07;14.20;99.90
30300;DHT22;17110;52.602;12.998;2022-07-29T00:27:34;14.10;99.90
30300;DHT22;17110;52.602;12.998;2022-07-29T00:30:00;14.00;99.90
30300;DHT22;17110;52.602;12.998;2022-07-29T00:32:26;14.00;99.90
30300;DHT22;17110;52.602;12.998;2022-07-29T00:34:51;14.10;99.90
30300;DHT22;17110;52.602;12.998;2022-07-29T00:37:36;14.00;99.90
30300;DHT22;17110;52.602;12.998;2022-07-29T00:40:02;14.10;99.90
30300;DHT22;17110;52.602;12.998;2022-07-29T00:42:28;14.10;99.90
30300;DHT22;17110;52.602;12.998;2022-07-29T00:44:54;14.10;99.90
30300;DHT22;17110;52.602;12.998;2022-07-29T00:47:19;14.00;99.90
30300;DHT22;17110;52.602;12.998;2022-07-29T00:49:45;14.00;99.90
30300;DHT22;17110;52.602;12.998;2022-07-29T00:52:11;14.00;99.90
30300;DHT22;17110;52.602;12.998;2022-07-29T00:54:39;14.00;99.90
30300;DHT22;17110;52.602;12.998;2022-07-29T00:57:06;14.00;99.90
30300;DHT22;17110;52.602;12.998;2022-07-29T00:59:33;13.90;99.90
30300;DHT22;17110;52.602;12.998;2022-07-29T01:01:59;13.80;99.90
30300;DHT22;17110;52.602;12.998;2022-07-29T01:04:25;13.80;99.90
30300;DHT22;17110;52.602;12.998;2022-07-29T01:06:52;13.80;99.90
30300;DHT22;17110;52.602;12.998;2022-07-29T01:09:18;13.80;99.90
30300;DHT22;17110;52.602;12.998;2022-07-29T01:11:45;13.80;99.90
30300;DHT22;17110;52.602;12.998;2022-07-29T01:14:13;13.70;99.90
30300;DHT22;17110;52.602;12.998;2022-07-29T01:16:49;13.70;99.90
30300;DHT22;17110;52.602;12.998;2022-07-29T01:22:26;13.70;99.90
30300;DHT22;17110;52.602;12.998;2022-07-29T01:30:18;13.70;99.90
30300;DHT22;17110;52.602;12.998;2022-07-29T01:32:47;13.70;99.90
30300;DHT22;17110;52.602;12.998;2022-07-29T01:35:20;13.70;99.90
30300;DHT22;17110;52.602;12.998;2022-07-29T01:37:57;13.80;99.90
30300;DHT22;17110;52.602;12.998;2022-07-29T01:43:32;13.60;99.90
30300;DHT22;17110;52.602;12.998;2022-07-29T01:46:04;13.50;99.90
30300;DHT22;17110;52.602;12.998;2022-07-29T01:48:42;13.50;99.90
30300;DHT22;17110;52.602;12.998;2022-07-29T01:51:36;13.50;99.90
30300;DHT22;17110;52.602;12.998;2022-07-29T01:54:14;13.50;99.90
30300;DHT22;17110;52.602;12.998;2022-07-29T01:56:43;13.50;99.90
30300;DHT22;17110;52.602;12.998;2022-07-29T01:59:10;13.50;99.90
30300;DHT22;17110;52.602;12.998;2022-07-29T02:01:39;13.60;99.90
30300;DHT22;17110;52.602;12.998;2022-07-29T02:04:07;13.60;99.90
30300;DHT22;17110;52.602;12.998;2022-07-29T02:06:37;13.50;99.90
30300;DHT22;17110;52.602;12.998;2022-07-29T02:09:04;13.50;99.90
30300;DHT22;17110;52.602;12.998;2022-07-29T02:11:33;13.40;99.90
30300;DHT22;17110;52.602;12.998;2022-07-29T02:14:01;13.50;99.90
30300;DHT22;17110;52.602;12.998;2022-07-29T02:16:31;13.40;99.90
30300;DHT22;17110;52.602;12.998;2022-07-29T02:19:00;13.50;99.90
30300;DHT22;17110;52.602;12.998;2022-07-29T02:21:27;13.50;99.90
30300;DHT22;17110;52.602;12.998;2022-07-29T02:23:54;13.50;99.90
30300;DHT22;17110;52.602;12.998;2022-07-29T02:26:23;13.50;99.90
30300;DHT22;17110;52.602;12.998;2022-07-29T02:28:51;13.40;99.90
30300;DHT22;17110;52.602;12.998;2022-07-29T02:31:22;13.50;99.90
30300;DHT22;17110;52.602;12.998;2022-07-29T02:33:49;13.50;99.90
30300;DHT22;17110;52.602;12.998;2022-07-29T02:36:16;13.50;99.90
30300;DHT22;17110;52.602;12.998;2022-07-29T02:38:43;13.50;99.90
30300;DHT22;17110;52.602;12.998;2022-07-29T02:41:31;13.50;99.90
30300;DHT22;17110;52.602;12.998;2022-07-29T02:44:08;13.50;99.90
30300;DHT22;17110;52.602;12.998;2022-07-29T02:46:36;13.60;99.90
30300;DHT22;17110;52.602;12.998;2022-07-29T02:52:06;13.60;99.90
30300;DHT22;17110;52.602;12.998;2022-07-29T02:54:55;13.60;99.90
30300;DHT22;17110;52.602;12.998;2022-07-29T02:59:59;13.70;99.90
30300;DHT22;17110;52.602;12.998;2022-07-29T03:02:27;13.70;99.90
30300;DHT22;17110;52.602;12.998;2022-07-29T03:04:55;13.70;99.90
30300;DHT22;17110;52.602;12.998;2022-07-29T03:07:22;13.70;99.90
30300;DHT22;17110;52.602;12.998;2022-07-29T03:09:49;13.60;99.90
30300;DHT22;17110;52.602;12.998;2022-07-29T03:12:16;13.70;99.90
30300;DHT22;17110;52.602;12.998;2022-07-29T03:14:43;13.70;99.90
30300;DHT22;17110;52.602;12.998;2022-07-29T03:17:10;13.70;99.90
30300;DHT22;17110;52.602;12.998;2022-07-29T03:19:36;13.70;99.90
30300;DHT22;17110;52.602;12.998;2022-07-29T03:22:01;13.60;99.90
30300;DHT22;17110;52.602;12.998;2022-07-29T03:24:32;13.50;99.90
30300;DHT22;17110;52.602;12.998;2022-07-29T03:26:59;13.60;99.90
30300;DHT22;17110;52.602;12.998;2022-07-29T03:29:25;13.60;99.90
30300;DHT22;17110;52.602;12.998;2022-07-29T03:31:51;13.50;99.90
30300;DHT22;17110;52.602;12.998;2022-07-29T03:34:17;13.50;99.90
30300;DHT22;17110;52.602;12.998;2022-07-29T03:36:42;13.50;99.90
30300;DHT22;17110;52.602;12.998;2022-07-29T03:39:09;13.60;99.90
30300;DHT22;17110;52.602;12.998;2022-07-29T03:41:36;13.60;99.90
30300;DHT22;17110;52.602;12.998;2022-07-29T03:44:05;13.60;99.90
30300;DHT22;17110;52.602;12.998;2022-07-29T03:46:34;13.60;99.90
30300;DHT22;17110;52.602;12.998;2022-07-29T03:49:03;13.60;99.90
30300;DHT22;17110;52.602;12.998;2022-07-29T03:51:30;13.50;99.90
30300;DHT22;17110;52.602;12.998;2022-07-29T03:53:56;13.50;99.90
30300;DHT22;17110;52.602;12.998;2022-07-29T03:56:22;13.60;99.90
30300;DHT22;17110;52.602;12.998;2022-07-29T03:58:52;13.50;99.90
30300;DHT22;17110;52.602;12.998;2022-07-29T04:01:19;13.50;99.90
30300;DHT22;17110;52.602;12.998;2022-07-29T04:03:46;13.40;99.90
30300;DHT22;17110;52.602;12.998;2022-07-29T04:06:12;13.50;99.90
30300;DHT22;17110;52.602;12.998;2022-07-29T04:08:38;13.50;99.90
30300;DHT22;17110;52.602;12.998;2022-07-29T04:11:04;13.50;99.90
30300;DHT22;17110;52.602;12.998;2022-07-29T04:13:31;13.60;99.90
30300;DHT22;17110;52.602;12.998;2022-07-29T04:15:57;13.70;99.90
30300;DHT22;17110;52.602;12.998;2022-07-29T04:18:23;13.70;99.90
30300;DHT22;17110;52.602;12.998;2022-07-29T04:20:49;13.60;99.90
30300;DHT22;17110;52.602;12.998;2022-07-29T04:23:15;13.60;99.90
30300;DHT22;17110;52.602;12.998;2022-07-29T04:25:41;13.70;99.90
30300;DHT22;17110;52.602;12.998;2022-07-29T04:28:08;13.80;99.90
30300;DHT22;17110;52.602;12.998;2022-07-29T04:30:36;13.80;99.90
30300;DHT22;17110;52.602;12.998;2022-07-29T04:33:04;14.00;99.90
30300;DHT22;17110;52.602;12.998;2022-07-29T04:35:31;14.00;99.90
30300;DHT22;17110;52.602;12.998;2022-07-29T04:37:58;14.10;99.90
30300;DHT22;17110;52.602;12.998;2022-07-29T04:40:24;14.20;99.90
30300;DHT22;17110;52.602;12.998;2022-07-29T04:42:49;14.30;99.90
30300;DHT22;17110;52.602;12.998;2022-07-29T04:45:15;14.30;99.90
30300;DHT22;17110;52.602;12.998;2022-07-29T04:47:41;14.40;99.90
30300;DHT22;17110;52.602;12.998;2022-07-29T04:50:08;14.60;99.90
30300;DHT22;17110;52.602;12.998;2022-07-29T04:52:34;14.60;99.90
30300;DHT22;17110;52.602;12.998;2022-07-29T04:55:01;14.80;99.90
30300;DHT22;17110;52.602;12.998;2022-07-29T04:57:26;14.90;99.90
30300;DHT22;17110;52.602;12.998;2022-07-29T04:59:52;15.00;99.90
30300;DHT22;17110;52.602;12.998;2022-07-29T05:02:17;15.10;99.90
30300;DHT22;17110;52.602;12.998;2022-07-29T05:04:43;15.20;99.90
30300;DHT22;17110;52.602;12.998;2022-07-29T05:07:09;15.20;99.90
30300;DHT22;17110;52.602;12.998;2022-07-29T05:09:34;15.30;99.90
30300;DHT22;17110;52.602;12.998;2022-07-29T05:12:00;15.40;99.90
30300;DHT22;17110;52.602;12.998;2022-07-29T05:14:26;15.40;99.90
30300;DHT22;17110;52.602;12.998;2022-07-29T05:16:51;15.50;99.90
30300;DHT22;17110;52.602;12.998;2022-07-29T05:19:18;15.60;99.90
30300;DHT22;17110;52.602;12.998;2022-07-29T05:21:46;15.60;99.90
30300;DHT22;17110;52.602;12.998;2022-07-29T05:24:13;15.60;99.90
30300;DHT22;17110;52.602;12.998;2022-07-29T05:26:39;15.60;99.90
30300;DHT22;17110;52.602;12.998;2022-07-29T05:29:05;15.60;99.90
30300;DHT22;17110;52.602;12.998;2022-07-29T05:31:30;15.50;99.90
30300;DHT22;17110;52.602;12.998;2022-07-29T05:33:56;15.50;99.90
30300;DHT22;17110;52.602;12.998;2022-07-29T05:36:22;15.60;99.90
30300;DHT22;17110;52.602;12.998;2022-07-29T05:38:47;15.90;99.90
30300;DHT22;17110;52.602;12.998;2022-07-29T05:41:13;15.70;99.90
30300;DHT22;17110;52.602;12.998;2022-07-29T05:43:38;15.80;99.90
30300;DHT22;17110;52.602;12.998;2022-07-29T05:46:04;15.70;99.90
30300;DHT22;17110;52.602;12.998;2022-07-29T05:48:30;15.80;99.90
30300;DHT22;17110;52.602;12.998;2022-07-29T05:50:55;15.90;99.90
30300;DHT22;17110;52.602;12.998;2022-07-29T05:53:21;16.00;99.90
30300;DHT22;17110;52.602;12.998;2022-07-29T05:55:48;16.00;99.90
30300;DHT22;17110;52.602;12.998;2022-07-29T05:58:13;16.10;99.90
30300;DHT22;17110;52.602;12.998;2022-07-29T06:00:39;16.20;99.90
30300;DHT22;17110;52.602;12.998;2022-07-29T06:03:05;16.40;99.90
30300;DHT22;17110;52.602;12.998;2022-07-29T06:05:30;16.50;99.90
30300;DHT22;17110;52.602;12.998;2022-07-29T06:07:56;16.60;99.90
30300;DHT22;17110;52.602;12.998;2022-07-29T06:10:22;16.60;99.90
30300;DHT22;17110;52.602;12.998;2022-07-29T06:12:48;16.70;99.90
30300;DHT22;17110;52.602;12.998;2022-07-29T06:15:13;16.70;99.90
30300;DHT22;17110;52.602;12.998;2022-07-29T06:17:39;16.90;99.90
30300;DHT22;17110;52.602;12.998;2022-07-29T06:20:05;17.00;99.90
30300;DHT22;17110;52.602;12.998;2022-07-29T06:22:30;17.20;99.90
30300;DHT22;17110;52.602;12.998;2022-07-29T06:24:56;17.30;99.90
30300;DHT22;17110;52.602;12.998;2022-07-29T06:27:22;17.30;99.90
30300;DHT22;17110;52.602;12.998;2022-07-29T06:29:47;17.50;99.90
30300;DHT22;17110;52.602;12.998;2022-07-29T06:32:13;17.70;99.90
30300;DHT22;17110;52.602;12.998;2022-07-29T06:34:39;17.90;99.90
30300;DHT22;17110;52.602;12.998;2022-07-29T06:37:08;17.90;99.90
30300;DHT22;17110;52.602;12.998;2022-07-29T06:39:35;18.10;99.90
30300;DHT22;17110;52.602;12.998;2022-07-29T06:42:02;18.30;99.90
30300;DHT22;17110;52.602;12.998;2022-07-29T06:44:28;18.50;99.90
30300;DHT22;17110;52.602;12.998;2022-07-29T06:46:55;18.90;99.90
30300;DHT22;17110;52.602;12.998;2022-07-29T06:49:21;19.40;99.90
30300;DHT22;17110;52.602;12.998;2022-07-29T06:51:47;19.90;99.90
30300;DHT22;17110;52.602;12.998;2022-07-29T06:54:12;20.20;99.90
30300;DHT22;17110;52.602;12.998;2022-07-29T06:56:38;20.30;99.90
30300;DHT22;17110;52.602;12.998;2022-07-29T06:59:11;20.60;99.90
30300;DHT22;17110;52.602;12.998;2022-07-29T07:01:41;21.10;99.90
30300;DHT22;17110;52.602;12.998;2022-07-29T07:04:09;21.40;99.90
30300;DHT22;17110;52.602;12.998;2022-07-29T07:06:36;21.80;99.90
30300;DHT22;17110;52.602;12.998;2022-07-29T07:09:02;22.30;99.90
30300;DHT22;17110;52.602;12.998;2022-07-29T07:11:28;22.70;99.90
30300;DHT22;17110;52.602;12.998;2022-07-29T07:13:54;22.80;99.90
30300;DHT22;17110;52.602;12.998;2022-07-29T07:16:19;22.90;99.90
30300;DHT22;17110;52.602;12.998;2022-07-29T07:18:45;22.90;99.90
30300;DHT22;17110;52.602;12.998;2022-07-29T07:21:11;23.30;99.90
30300;DHT22;17110;52.602;12.998;2022-07-29T07:23:37;23.20;99.90
30300;DHT22;17110;52.602;12.998;2022-07-29T07:26:03;23.00;99.90
30300;DHT22;17110;52.602;12.998;2022-07-29T07:28:30;22.80;99.60
30300;DHT22;17110;52.602;12.998;2022-07-29T07:30:56;22.70;99.90
30300;DHT22;17110;52.602;12.998;2022-07-29T07:33:21;22.90;99.90
30300;DHT22;17110;52.602;12.998;2022-07-29T07:35:47;23.00;99.90
30300;DHT22;17110;52.602;12.998;2022-07-29T07:38:13;23.30;99.90
30300;DHT22;17110;52.602;12.998;2022-07-29T07:40:39;23.60;99.80
30300;DHT22;17110;52.602;12.998;2022-07-29T07:43:05;23.90;99.30
30300;DHT22;17110;52.602;12.998;2022-07-29T07:45:31;24.00;98.70
30300;DHT22;17110;52.602;12.998;2022-07-29T07:47:58;24.10;98.20
30300;DHT22;17110;52.602;12.998;2022-07-29T07:50:24;24.10;98.20
30300;DHT22;17110;52.602;12.998;2022-07-29T07:52:52;24.10;97.60
30300;DHT22;17110;52.602;12.998;2022-07-29T07:55:18;24.20;97.70
30300;DHT22;17110;52.602;12.998;2022-07-29T07:57:44;24.20;97.90
30300;DHT22;17110;52.602;12.998;2022-07-29T08:00:12;24.00;97.40
30300;DHT22;17110;52.602;12.998;2022-07-29T08:02:38;23.70;97.90
30300;DHT22;17110;52.602;12.998;2022-07-29T08:05:06;23.50;97.70
30300;DHT22;17110;52.602;12.998;2022-07-29T08:07:32;23.40;98.70
30300;DHT22;17110;52.602;12.998;2022-07-29T08:09:59;23.60;98.60
30300;DHT22;17110;52.602;12.998;2022-07-29T08:12:25;23.90;97.90
30300;DHT22;17110;52.602;12.998;2022-07-29T08:14:51;24.00;96.80
30300;DHT22;17110;52.602;12.998;2022-07-29T08:17:16;24.00;97.60
30300;DHT22;17110;52.602;12.998;2022-07-29T08:19:42;24.10;97.80
30300;DHT22;17110;52.602;12.998;2022-07-29T08:22:07;24.20;97.40
30300;DHT22;17110;52.602;12.998;2022-07-29T08:24:35;24.20;96.40
30300;DHT22;17110;52.602;12.998;2022-07-29T08:27:18;24.40;97.30
30300;DHT22;17110;52.602;12.998;2022-07-29T08:29:44;24.20;95.90
30300;DHT22;17110;52.602;12.998;2022-07-29T08:32:10;24.10;96.00
30300;DHT22;17110;52.602;12.998;2022-07-29T08:34:35;24.10;96.90
30300;DHT22;17110;52.602;12.998;2022-07-29T08:37:01;24.30;95.70
30300;DHT22;17110;52.602;12.998;2022-07-29T08:39:27;24.40;95.90
30300;DHT22;17110;52.602;12.998;2022-07-29T08:41:53;24.40;96.00
30300;DHT22;17110;52.602;12.998;2022-07-29T08:44:20;24.60;95.60
30300;DHT22;17110;52.602;12.998;2022-07-29T08:46:47;24.70;95.60
30300;DHT22;17110;52.602;12.998;2022-07-29T08:49:13;24.80;96.20
30300;DHT22;17110;52.602;12.998;2022-07-29T08:51:40;25.20;95.50
30300;DHT22;17110;52.602;12.998;2022-07-29T08:54:08;25.60;94.70
30300;DHT22;17110;52.602;12.998;2022-07-29T08:56:34;25.80;93.20
30300;DHT22;17110;52.602;12.998;2022-07-29T08:59:03;26.00;93.30
30300;DHT22;17110;52.602;12.998;2022-07-29T09:01:32;26.30;92.70
30300;DHT22;17110;52.602;12.998;2022-07-29T09:03:59;26.30;92.20
30300;DHT22;17110;52.602;12.998;2022-07-29T09:06:32;26.30;91.70
30300;DHT22;17110;52.602;12.998;2022-07-29T09:09:35;26.10;91.70
30300;DHT22;17110;52.602;12.998;2022-07-29T09:11:54;26.20;90.90
30300;DHT22;17110;52.602;12.998;2022-07-29T09:14:20;26.30;91.20
30300;DHT22;17110;52.602;12.998;2022-07-29T09:16:55;26.40;90.90
30300;DHT22;17110;52.602;12.998;2022-07-29T09:19:32;26.60;90.30
30300;DHT22;17110;52.602;12.998;2022-07-29T09:22:05;26.90;90.80
30300;DHT22;17110;52.602;12.998;2022-07-29T09:24:40;26.80;87.90
30300;DHT22;17110;52.602;12.998;2022-07-29T09:29:46;26.70;86.50
30300;DHT22;17110;52.602;12.998;2022-07-29T09:32:12;26.70;84.90
30300;DHT22;17110;52.602;12.998;2022-07-29T09:34:38;26.80;85.90
30300;DHT22;17110;52.602;12.998;2022-07-29T09:37:04;27.00;86.10
30300;DHT22;17110;52.602;12.998;2022-07-29T09:39:36;27.20;85.40
30300;DHT22;17110;52.602;12.998;2022-07-29T09:42:05;27.40;82.80
30300;DHT22;17110;52.602;12.998;2022-07-29T09:44:47;27.60;81.10
30300;DHT22;17110;52.602;12.998;2022-07-29T09:47:15;27.40;80.50
30300;DHT22;17110;52.602;12.998;2022-07-29T09:49:55;27.30;80.20
30300;DHT22;17110;52.602;12.998;2022-07-29T09:52:24;27.30;81.20
30300;DHT22;17110;52.602;12.998;2022-07-29T09:54:49;27.30;79.40
30300;DHT22;17110;52.602;12.998;2022-07-29T09:57:28;27.40;80.40
30300;DHT22;17110;52.602;12.998;2022-07-29T09:59:58;27.40;77.40
30300;DHT22;17110;52.602;12.998;2022-07-29T10:02:31;27.50;76.60
30300;DHT22;17110;52.602;12.998;2022-07-29T10:04:59;27.60;75.70
30300;DHT22;17110;52.602;12.998;2022-07-29T10:07:25;27.50;75.70
30300;DHT22;17110;52.602;12.998;2022-07-29T10:09:56;27.60;74.20
30300;DHT22;17110;52.602;12.998;2022-07-29T10:12:23;27.60;73.80
30300;DHT22;17110;52.602;12.998;2022-07-29T10:14:50;27.70;74.00
30300;DHT22;17110;52.602;12.998;2022-07-29T10:17:17;28.00;74.10
30300;DHT22;17110;52.602;12.998;2022-07-29T10:19:44;28.00;70.90
30300;DHT22;17110;52.602;12.998;2022-07-29T10:22:10;28.00;71.10
30300;DHT22;17110;52.602;12.998;2022-07-29T10:24:37;27.70;72.20
30300;DHT22;17110;52.602;12.998;2022-07-29T10:27:06;27.60;71.20
30300;DHT22;17110;52.602;12.998;2022-07-29T10:29:32;27.70;72.60
30300;DHT22;17110;52.602;12.998;2022-07-29T10:34:54;27.80;72.80
30300;DHT22;17110;52.602;12.998;2022-07-29T10:37:52;28.00;72.40
30300;DHT22;17110;52.602;12.998;2022-07-29T10:40:46;27.90;70.90
30300;DHT22;17110;52.602;12.998;2022-07-29T10:43:40;27.60;70.50
30300;DHT22;17110;52.602;12.998;2022-07-29T10:46:06;27.60;71.20
30300;DHT22;17110;52.602;12.998;2022-07-29T10:48:33;27.70;70.90
30300;DHT22;17110;52.602;12.998;2022-07-29T10:51:01;27.80;70.10
30300;DHT22;17110;52.602;12.998;2022-07-29T10:53:47;28.00;70.50
30300;DHT22;17110;52.602;12.998;2022-07-29T10:56:24;28.00;70.70
30300;DHT22;17110;52.602;12.998;2022-07-29T11:01:48;28.20;70.60
30300;DHT22;17110;52.602;12.998;2022-07-29T11:07:12;28.30;71.20
30300;DHT22;17110;52.602;12.998;2022-07-29T11:09:38;28.20;71.40
30300;DHT22;17110;52.602;12.998;2022-07-29T11:15:01;28.00;71.50
30300;DHT22;17110;52.602;12.998;2022-07-29T11:17:28;27.80;71.10
30300;DHT22;17110;52.602;12.998;2022-07-29T11:22:57;27.30;71.70
30300;DHT22;17110;52.602;12.998;2022-07-29T11:25:23;27.20;72.90
30300;DHT22;17110;52.602;12.998;2022-07-29T11:27:49;27.40;73.60
30300;DHT22;17110;52.602;12.998;2022-07-29T11:30:17;27.70;73.70
30300;DHT22;17110;52.602;12.998;2022-07-29T11:32:44;28.10;70.30
30300;DHT22;17110;52.602;12.998;2022-07-29T11:37:43;28.70;68.40
30300;DHT22;17110;52.602;12.998;2022-07-29T11:40:11;28.90;69.20
30300;DHT22;17110;52.602;12.998;2022-07-29T11:42:38;29.30;68.40
30300;DHT22;17110;52.602;12.998;2022-07-29T11:45:20;29.40;67.60
30300;DHT22;17110;52.602;12.998;2022-07-29T11:47:47;29.30;67.10
30300;DHT22;17110;52.602;12.998;2022-07-29T11:50:16;29.10;67.40
30300;DHT22;17110;52.602;12.998;2022-07-29T11:52:45;29.10;67.20
30300;DHT22;17110;52.602;12.998;2022-07-29T11:55:17;28.80;68.00
30300;DHT22;17110;52.602;12.998;2022-07-29T11:57:48;28.70;67.90
30300;DHT22;17110;52.602;12.998;2022-07-29T12:00:25;28.90;69.20
30300;DHT22;17110;52.602;12.998;2022-07-29T12:02:53;29.00;69.30
30300;DHT22;17110;52.602;12.998;2022-07-29T12:05:20;29.30;70.20
30300;DHT22;17110;52.602;12.998;2022-07-29T12:07:47;29.40;68.40
30300;DHT22;17110;52.602;12.998;2022-07-29T12:10:13;29.40;68.50
30300;DHT22;17110;52.602;12.998;2022-07-29T12:12:39;29.40;68.30
30300;DHT22;17110;52.602;12.998;2022-07-29T12:15:16;29.20;68.10
30300;DHT22;17110;52.602;12.998;2022-07-29T12:17:43;29.20;68.00
30300;DHT22;17110;52.602;12.998;2022-07-29T12:20:09;28.90;68.10
30300;DHT22;17110;52.602;12.998;2022-07-29T12:22:38;28.70;68.80
30300;DHT22;17110;52.602;12.998;2022-07-29T12:25:08;28.70;69.50
30300;DHT22;17110;52.602;12.998;2022-07-29T12:27:35;28.80;68.30
30300;DHT22;17110;52.602;12.998;2022-07-29T12:30:06;28.90;70.60
30300;DHT22;17110;52.602;12.998;2022-07-29T12:35:08;28.80;69.10
30300;DHT22;17110;52.602;12.998;2022-07-29T12:37:35;28.90;68.90
30300;DHT22;17110;52.602;12.998;2022-07-29T12:40:03;29.20;71.30
30300;DHT22;17110;52.602;12.998;2022-07-29T12:42:30;29.30;69.20
30300;DHT22;17110;52.602;12.998;2022-07-29T12:44:56;29.40;67.70
30300;DHT22;17110;52.602;12.998;2022-07-29T12:47:22;29.30;67.80
30300;DHT22;17110;52.602;12.998;2022-07-29T12:49:49;29.10;68.90
30300;DHT22;17110;52.602;12.998;2022-07-29T12:52:32;29.00;69.30
30300;DHT22;17110;52.602;12.998;2022-07-29T12:54:59;29.00;71.20
30300;DHT22;17110;52.602;12.998;2022-07-29T12:57:28;29.00;70.50
30300;DHT22;17110;52.602;12.998;2022-07-29T13:00:11;28.90;71.10
30300;DHT22;17110;52.602;12.998;2022-07-29T13:02:40;28.90;71.30
30300;DHT22;17110;52.602;12.998;2022-07-29T13:05:07;28.70;70.10
30300;DHT22;17110;52.602;12.998;2022-07-29T13:07:35;28.60;71.60
30300;DHT22;17110;52.602;12.998;2022-07-29T13:10:16;28.60;72.10
30300;DHT22;17110;52.602;12.998;2022-07-29T13:13:05;28.60;70.70
30300;DHT22;17110;52.602;12.998;2022-07-29T13:15:31;28.50;70.70
30300;DHT22;17110;52.602;12.998;2022-07-29T13:17:58;28.30;71.90
30300;DHT22;17110;52.602;12.998;2022-07-29T13:20:25;28.20;72.50
30300;DHT22;17110;52.602;12.998;2022-07-29T13:22:53;28.20;73.60
30300;DHT22;17110;52.602;12.998;2022-07-29T13:25:27;28.30;72.50
30300;DHT22;17110;52.602;12.998;2022-07-29T13:27:53;28.40;73.70
30300;DHT22;17110;52.602;12.998;2022-07-29T13:30:20;28.60;73.60
30300;DHT22;17110;52.602;12.998;2022-07-29T13:32:46;28.70;72.90
30300;DHT22;17110;52.602;12.998;2022-07-29T13:35:12;28.50;73.20
30300;DHT22;17110;52.602;12.998;2022-07-29T13:37:39;28.60;73.70
30300;DHT22;17110;52.602;12.998;2022-07-29T13:40:07;28.80;74.60
30300;DHT22;17110;52.602;12.998;2022-07-29T13:42:36;29.10;72.60
30300;DHT22;17110;52.602;12.998;2022-07-29T13:45:02;29.20;73.50
30300;DHT22;17110;52.602;12.998;2022-07-29T13:47:28;29.30;73.80
30300;DHT22;17110;52.602;12.998;2022-07-29T13:49:54;29.40;71.70
30300;DHT22;17110;52.602;12.998;2022-07-29T13:52:20;29.30;72.80
30300;DHT22;17110;52.602;12.998;2022-07-29T13:54:46;29.40;71.80
30300;DHT22;17110;52.602;12.998;2022-07-29T13:57:12;29.30;73.80
30300;DHT22;17110;52.602;12.998;2022-07-29T13:59:40;29.40;73.40
30300;DHT22;17110;52.602;12.998;2022-07-29T14:02:06;29.20;73.10
30300;DHT22;17110;52.602;12.998;2022-07-29T14:04:32;29.00;74.30
30300;DHT22;17110;52.602;12.998;2022-07-29T14:06:58;29.10;73.10
30300;DHT22;17110;52.602;12.998;2022-07-29T14:09:24;29.10;72.70
30300;DHT22;17110;52.602;12.998;2022-07-29T14:11:50;29.10;73.50
30300;DHT22;17110;52.602;12.998;2022-07-29T14:14:16;29.30;74.00
30300;DHT22;17110;52.602;12.998;2022-07-29T14:16:42;29.40;71.80
30300;DHT22;17110;52.602;12.998;2022-07-29T14:19:08;29.40;72.50
30300;DHT22;17110;52.602;12.998;2022-07-29T14:21:37;29.50;72.90
30300;DHT22;17110;52.602;12.998;2022-07-29T14:24:06;29.40;73.20
30300;DHT22;17110;52.602;12.998;2022-07-29T14:26:32;29.40;72.70
30300;DHT22;17110;52.602;12.998;2022-07-29T14:28:58;29.50;73.20
30300;DHT22;17110;52.602;12.998;2022-07-29T14:31:23;29.70;71.30
30300;DHT22;17110;52.602;12.998;2022-07-29T14:33:49;29.70;72.30
30300;DHT22;17110;52.602;12.998;2022-07-29T14:36:15;29.60;73.00
30300;DHT22;17110;52.602;12.998;2022-07-29T14:38:44;29.50;71.30
30300;DHT22;17110;52.602;12.998;2022-07-29T14:41:10;29.50;71.30
30300;DHT22;17110;52.602;12.998;2022-07-29T14:43:36;29.40;72.40
30300;DHT22;17110;52.602;12.998;2022-07-29T14:46:02;29.30;71.10
30300;DHT22;17110;52.602;12.998;2022-07-29T14:48:28;29.20;72.70
30300;DHT22;17110;52.602;12.998;2022-07-29T14:50:54;29.20;72.20
30300;DHT22;17110;52.602;12.998;2022-07-29T14:53:21;29.20;71.20
30300;DHT22;17110;52.602;12.998;2022-07-29T14:55:47;29.10;72.80
30300;DHT22;17110;52.602;12.998;2022-07-29T14:58:13;29.10;73.20
30300;DHT22;17110;52.602;12.998;2022-07-29T15:00:39;29.10;73.00
30300;DHT22;17110;52.602;12.998;2022-07-29T15:03:05;29.10;72.30
30300;DHT22;17110;52.602;12.998;2022-07-29T15:05:31;29.10;73.20
30300;DHT22;17110;52.602;12.998;2022-07-29T15:07:58;29.10;72.20
30300;DHT22;17110;52.602;12.998;2022-07-29T15:10:24;28.80;73.50
30300;DHT22;17110;52.602;12.998;2022-07-29T15:12:52;28.60;73.50
30300;DHT22;17110;52.602;12.998;2022-07-29T15:15:18;28.50;74.00
30300;DHT22;17110;52.602;12.998;2022-07-29T15:17:44;28.30;74.00
30300;DHT22;17110;52.602;12.998;2022-07-29T15:20:10;28.50;73.50
30300;DHT22;17110;52.602;12.998;2022-07-29T15:22:37;28.40;74.70
30300;DHT22;17110;52.602;12.998;2022-07-29T15:25:06;28.50;74.30
30300;DHT22;17110;52.602;12.998;2022-07-29T15:27:32;28.40;74.00
30300;DHT22;17110;52.602;12.998;2022-07-29T15:29:58;28.20;75.00
30300;DHT22;17110;52.602;12.998;2022-07-29T15:32:23;28.10;74.50
30300;DHT22;17110;52.602;12.998;2022-07-29T15:34:49;28.00;74.50
30300;DHT22;17110;52.602;12.998;2022-07-29T15:37:14;28.00;75.00
30300;DHT22;17110;52.602;12.998;2022-07-29T15:39:40;28.00;75.00
30300;DHT22;17110;52.602;12.998;2022-07-29T15:42:06;28.00;74.30
30300;DHT22;17110;52.602;12.998;2022-07-29T15:44:32;28.00;74.60
30300;DHT22;17110;52.602;12.998;2022-07-29T15:46:57;28.20;74.10
30300;DHT22;17110;52.602;12.998;2022-07-29T15:49:34;28.30;74.40
30300;DHT22;17110;52.602;12.998;2022-07-29T15:52:03;28.50;74.60
30300;DHT22;17110;52.602;12.998;2022-07-29T15:54:31;28.60;73.00
30300;DHT22;17110;52.602;12.998;2022-07-29T15:56:57;28.70;71.90
30300;DHT22;17110;52.602;12.998;2022-07-29T15:59:23;28.60;71.50